createdAt,value
2023-06-17T00:01:19.557Z,99228.57
2023-06-17T00:03:47.339Z,99228.69
2023-06-17T00:06:14.910Z,99222.85
2023-06-17T00:08:42.345Z,99223.42
2023-06-17T00:11:09.795Z,99225.96
2023-06-17T00:13:38.589Z,99225.69
2023-06-17T00:16:07.557Z,99225.57
2023-06-17T00:18:35.094Z,99219.77
2023-06-17T00:21:04.127Z,99216.59
2023-06-17T00:23:32.289Z,99214.42
2023-06-17T00:25:59.758Z,99214.79
2023-06-17T00:28:27.279Z,99209.95
2023-06-17T00:30:54.724Z,99210.45
2023-06-17T00:33:23.698Z,99214.00
2023-06-17T00:35:52.908Z,99206.95
2023-06-17T00:38:21.736Z,99212.00
2023-06-17T00:40:49.205Z,99212.29
2023-06-17T00:43:16.645Z,99210.58
2023-06-17T00:45:44.350Z,99212.21
2023-06-17T00:48:12.047Z,99217.63
2023-06-17T00:50:39.977Z,99212.52
2023-06-17T00:53:07.670Z,99213.20
2023-06-17T00:55:35.189Z,99215.52
2023-06-17T00:58:02.762Z,99213.51
2023-06-17T01:00:30.356Z,99212.48
2023-06-17T01:02:58.364Z,99214.63
2023-06-17T01:05:26.407Z,99213.02
2023-06-17T01:08:04.989Z,99209.89
2023-06-17T01:10:45.349Z,99210.85
2023-06-17T01:13:13.402Z,99203.55
2023-06-17T01:15:41.221Z,99201.45
2023-06-17T01:18:09.206Z,99201.33
2023-06-17T01:20:40.737Z,99202.00
2023-06-17T01:23:08.590Z,99202.08
2023-06-17T01:25:36.786Z,99200.54
2023-06-17T01:28:18.802Z,99198.48
2023-06-17T01:30:48.544Z,99197.18
2023-06-17T01:33:16.255Z,99200.47
2023-06-17T01:36:10.533Z,99202.98
2023-06-17T01:38:42.566Z,99202.56
2023-06-17T01:41:20.911Z,99202.98
2023-06-17T01:43:48.370Z,99201.77
2023-06-17T01:46:15.933Z,99206.05
2023-06-17T01:48:43.904Z,99204.12
2023-06-17T01:51:11.900Z,99206.88
2023-06-17T01:53:39.453Z,99203.66
2023-06-17T01:56:07.014Z,99204.88
2023-06-17T01:58:34.498Z,99203.66
2023-06-17T02:01:01.969Z,99206.23
2023-06-17T02:03:29.868Z,99206.95
2023-06-17T02:05:57.687Z,99203.89
2023-06-17T02:08:25.347Z,99200.76
2023-06-17T02:10:53.256Z,99205.84
2023-06-17T02:13:21.163Z,99205.02
2023-06-17T02:15:48.749Z,99202.98
2023-06-17T02:18:16.325Z,99206.46
2023-06-17T02:20:46.674Z,99201.35
2023-06-17T02:23:14.236Z,99203.85
2023-06-17T02:25:41.775Z,99202.31
2023-06-17T02:28:09.391Z,99206.20
2023-06-17T02:30:37.126Z,99203.19
2023-06-17T02:33:05.200Z,99203.48
2023-06-17T02:35:32.965Z,99201.95
2023-06-17T02:38:00.852Z,99200.63
2023-06-17T02:40:28.502Z,99208.80
2023-06-17T02:42:56.398Z,99208.83
2023-06-17T02:45:24.047Z,99209.45
2023-06-17T02:47:52.155Z,99209.97
2023-06-17T02:50:24.538Z,99213.28
2023-06-17T02:52:57.353Z,99212.07
2023-06-17T02:55:27.141Z,99216.24
2023-06-17T02:57:55.185Z,99214.58
2023-06-17T03:00:24.215Z,99215.05
2023-06-17T03:02:52.245Z,99215.14
2023-06-17T03:05:20.068Z,99217.88
2023-06-17T03:07:48.137Z,99217.92
2023-06-17T03:10:16.989Z,99221.14
2023-06-17T03:12:47.443Z,99219.64
2023-06-17T03:15:18.695Z,99217.89
2023-06-17T03:17:47.269Z,99218.67
2023-06-17T03:20:15.541Z,99219.85
2023-06-17T03:22:43.214Z,99221.27
2023-06-17T03:25:11.067Z,99220.68
2023-06-17T03:27:39.074Z,99218.33
2023-06-17T03:30:07.146Z,99220.13
2023-06-17T03:32:34.661Z,99228.23
2023-06-17T03:35:03.542Z,99225.27
2023-06-17T03:37:31.319Z,99227.41
2023-06-17T03:39:58.873Z,99230.89
2023-06-17T03:42:27.718Z,99230.02
2023-06-17T03:44:55.179Z,99230.05
2023-06-17T03:47:22.692Z,99234.52
2023-06-17T03:49:50.692Z,99233.84
2023-06-17T03:52:18.278Z,99232.34
2023-06-17T03:54:45.914Z,99234.30
2023-06-17T03:57:13.822Z,99235.05
2023-06-17T03:59:41.381Z,99237.16
2023-06-17T04:02:09.004Z,99236.35
2023-06-17T04:04:36.495Z,99234.70
2023-06-17T04:07:04.236Z,99231.04
2023-06-17T04:09:33.896Z,99231.05
2023-06-17T04:12:03.322Z,99233.90
2023-06-17T04:14:30.862Z,99235.92
2023-06-17T04:17:00.620Z,99238.61
2023-06-17T04:19:28.169Z,99243.86
2023-06-17T04:21:55.812Z,99237.72
2023-06-17T04:24:23.404Z,99239.27
2023-06-17T04:26:54.034Z,99240.59
2023-06-17T04:29:23.716Z,99241.45
2023-06-17T04:31:51.184Z,99243.80
2023-06-17T04:34:25.302Z,99246.55
2023-06-17T04:36:58.621Z,99246.80
2023-06-17T04:39:29.441Z,99251.88
2023-06-17T04:41:57.666Z,99250.06
2023-06-17T04:44:25.176Z,99251.14
2023-06-17T04:46:53.151Z,99245.31
2023-06-17T04:49:21.312Z,99249.66
2023-06-17T04:51:49.850Z,99251.52
2023-06-17T04:54:17.997Z,99249.05
2023-06-17T04:56:45.662Z,99246.33
2023-06-17T04:59:13.318Z,99252.10
2023-06-17T05:01:41.243Z,99249.86
2023-06-17T05:04:09.032Z,99246.83
2023-06-17T05:06:37.250Z,99252.20
2023-06-17T05:09:05.134Z,99254.52
2023-06-17T05:11:33.017Z,99260.06
2023-06-17T05:14:00.659Z,99266.38
2023-06-17T05:16:28.247Z,99268.23
2023-06-17T05:18:56.359Z,99262.89
2023-06-17T05:21:24.144Z,99263.52
2023-06-17T05:23:53.226Z,99262.65
2023-06-17T05:26:21.245Z,99260.73
2023-06-17T05:28:48.910Z,99266.55
2023-06-17T05:31:17.202Z,99263.09
2023-06-17T05:33:45.270Z,99263.38
2023-06-17T05:36:12.937Z,99262.33
2023-06-17T05:38:40.991Z,99259.98
2023-06-17T05:41:08.426Z,99260.98
2023-06-17T05:43:36.964Z,99259.08
2023-06-17T05:46:04.520Z,99256.89
2023-06-17T05:48:32.315Z,99253.17
2023-06-17T05:50:59.784Z,99251.60
2023-06-17T05:53:27.247Z,99254.20
2023-06-17T05:55:55.398Z,99253.20
2023-06-17T05:58:22.902Z,99256.25
2023-06-17T06:00:59.267Z,99258.98
2023-06-17T06:03:26.795Z,99259.37
2023-06-17T06:05:54.368Z,99255.55
2023-06-17T06:08:21.856Z,99261.23
2023-06-17T06:10:49.480Z,99259.48
2023-06-17T06:13:17.281Z,99253.48
2023-06-17T06:15:44.850Z,99251.08
2023-06-17T06:18:12.467Z,99258.70
2023-06-17T06:20:39.936Z,99259.86
2023-06-17T06:23:08.037Z,99257.55
2023-06-17T06:25:35.894Z,99251.05
2023-06-17T06:28:03.603Z,99250.88
2023-06-17T06:30:31.095Z,99247.66
2023-06-17T06:32:59.955Z,99242.96
2023-06-17T06:35:27.623Z,99239.44
2023-06-17T06:37:55.474Z,99244.39
2023-06-17T06:40:24.495Z,99243.06
2023-06-17T06:42:52.132Z,99239.14
2023-06-17T06:45:27.341Z,99240.45
2023-06-17T06:47:56.207Z,99241.54
2023-06-17T06:50:24.192Z,99240.20
2023-06-17T06:52:53.131Z,99236.52
2023-06-17T06:55:20.941Z,99236.73
2023-06-17T06:57:50.116Z,99237.36
2023-06-17T07:00:18.693Z,99238.23
2023-06-17T07:02:47.285Z,99237.05
2023-06-17T07:05:15.232Z,99238.70
2023-06-17T07:07:48.562Z,99238.35
2023-06-17T07:10:16.029Z,99239.30
2023-06-17T07:12:43.576Z,99239.64
2023-06-17T07:15:11.410Z,99241.50
2023-06-17T07:17:38.881Z,99240.85
2023-06-17T07:20:07.147Z,99238.81
2023-06-17T07:22:36.303Z,99239.59
2023-06-17T07:25:04.355Z,99234.47
2023-06-17T07:27:31.941Z,99238.05
2023-06-17T07:29:59.377Z,99235.08
2023-06-17T07:32:27.032Z,99235.08
2023-06-17T07:34:58.287Z,99232.73
2023-06-17T07:37:26.400Z,99230.86
2023-06-17T07:39:54.159Z,99230.94
2023-06-17T07:42:22.846Z,99233.29
2023-06-17T07:44:50.317Z,99228.60
2023-06-17T07:47:18.169Z,99231.42
2023-06-17T07:49:45.748Z,99235.77
2023-06-17T07:52:13.528Z,99240.28
2023-06-17T07:54:42.325Z,99241.62
2023-06-17T07:57:09.774Z,99248.64
2023-06-17T07:59:37.347Z,99247.26
2023-06-17T08:02:07.309Z,99247.70
2023-06-17T08:04:37.149Z,99249.05
2023-06-17T08:07:05.857Z,99248.25
2023-06-17T08:09:33.632Z,99249.73
2023-06-17T08:12:01.222Z,99248.65
2023-06-17T08:14:28.696Z,99253.27
2023-06-17T08:16:56.635Z,99251.55
2023-06-17T08:19:24.133Z,99251.73
2023-06-17T08:21:51.972Z,99254.05
2023-06-17T08:24:19.989Z,99258.80
2023-06-17T08:26:47.746Z,99254.73
2023-06-17T08:29:16.378Z,99253.42
2023-06-17T08:31:44.797Z,99252.30
2023-06-17T08:34:12.974Z,99250.63
2023-06-17T08:36:42.989Z,99251.98
2023-06-17T08:39:11.167Z,99252.71
2023-06-17T08:41:40.361Z,99244.64
2023-06-17T08:44:09.397Z,99242.29
2023-06-17T08:46:36.871Z,99237.05
2023-06-17T08:49:04.409Z,99240.48
2023-06-17T08:51:32.510Z,99236.41
2023-06-17T08:54:00.157Z,99241.48
2023-06-17T08:56:27.629Z,99234.04
2023-06-17T08:58:58.139Z,99239.27
2023-06-17T09:01:26.398Z,99226.33
2023-06-17T09:03:55.416Z,99228.73
2023-06-17T09:06:24.718Z,99226.80
2023-06-17T09:08:52.966Z,99227.73
2023-06-17T09:11:24.637Z,99233.33
2023-06-17T09:13:53.041Z,99234.97
2023-06-17T09:16:27.962Z,99232.54
2023-06-17T09:18:58.875Z,99232.40
2023-06-17T09:21:27.193Z,99230.38
2023-06-17T09:23:59.206Z,99230.17
2023-06-17T09:26:29.900Z,99228.80
2023-06-17T09:29:02.763Z,99232.17
2023-06-17T09:31:30.762Z,99230.78
2023-06-17T09:33:59.148Z,99223.58
2023-06-17T09:36:26.917Z,99222.81
2023-06-17T09:38:54.406Z,99223.48
2023-06-17T09:41:22.104Z,99223.06
2023-06-17T09:43:53.380Z,99226.85
2023-06-17T09:46:46.008Z,99227.92
2023-06-17T09:49:16.860Z,99224.34
2023-06-17T09:51:44.380Z,99227.83
2023-06-17T09:54:11.994Z,99220.80
2023-06-17T09:56:39.462Z,99224.45
2023-06-17T09:59:09.890Z,99220.52
2023-06-17T10:01:40.885Z,99215.61
2023-06-17T10:04:08.934Z,99213.45
2023-06-17T10:06:38.080Z,99214.89
2023-06-17T10:09:07.889Z,99218.91
2023-06-17T10:11:36.263Z,99212.73
2023-06-17T10:14:08.412Z,99206.64
2023-06-17T10:16:38.116Z,99210.45
2023-06-17T10:19:07.328Z,99207.88
2023-06-17T10:21:35.791Z,99210.84
2023-06-17T10:24:03.379Z,99208.43
2023-06-17T10:26:32.387Z,99204.86
2023-06-17T10:29:07.982Z,99200.43
2023-06-17T10:31:40.706Z,99196.73
2023-06-17T10:34:21.233Z,99196.55
2023-06-17T10:36:49.909Z,99206.81
2023-06-17T10:39:17.496Z,99199.30
2023-06-17T10:41:52.533Z,99197.09
2023-06-17T10:44:41.269Z,99191.10
2023-06-17T10:47:20.664Z,99194.02
2023-06-17T10:49:52.177Z,99187.20
2023-06-17T10:52:20.141Z,99192.70
2023-06-17T10:54:56.957Z,99191.00
2023-06-17T10:57:35.088Z,99180.46
2023-06-17T11:00:08.314Z,99183.38
2023-06-17T11:02:39.725Z,99191.85
2023-06-17T11:05:08.133Z,99186.72
2023-06-17T11:07:35.714Z,99186.09
2023-06-17T11:10:03.979Z,99188.71
2023-06-17T11:12:31.787Z,99182.10
2023-06-17T11:15:01.617Z,99179.58
2023-06-17T11:17:29.286Z,99175.59
2023-06-17T11:19:56.905Z,99176.77
2023-06-17T11:22:24.352Z,99169.64
2023-06-17T11:24:51.950Z,99163.05
2023-06-17T11:27:19.403Z,99160.34
2023-06-17T11:29:47.210Z,99164.20
2023-06-17T11:32:14.774Z,99167.68
2023-06-17T11:34:42.250Z,99164.24
2023-06-17T11:37:12.573Z,99166.81
2023-06-17T11:39:40.359Z,99164.13
2023-06-17T11:42:08.424Z,99160.78
2023-06-17T11:44:36.374Z,99160.55
2023-06-17T11:47:10.223Z,99162.22
2023-06-17T11:49:41.714Z,99161.64
2023-06-17T11:52:10.904Z,99158.98
2023-06-17T11:54:50.319Z,99160.60
2023-06-17T11:57:27.746Z,99153.98
2023-06-17T12:00:06.333Z,99156.40
2023-06-17T12:02:40.063Z,99159.45
2023-06-17T12:05:08.243Z,99160.04
2023-06-17T12:07:42.757Z,99161.70
2023-06-17T12:10:12.300Z,99162.02
2023-06-17T12:12:42.252Z,99159.10
2023-06-17T12:15:16.542Z,99152.62
2023-06-17T12:17:49.979Z,99156.23
2023-06-17T12:20:19.783Z,99154.85
2023-06-17T12:22:49.954Z,99154.61
2023-06-17T12:25:17.571Z,99150.32
2023-06-17T12:27:45.428Z,99144.58
2023-06-17T12:30:13.476Z,99144.67
2023-06-17T12:32:41.499Z,99141.84
2023-06-17T12:35:12.766Z,99142.23
2023-06-17T12:37:41.868Z,99140.20
2023-06-17T12:40:10.563Z,99138.09
2023-06-17T12:42:38.524Z,99133.06
2023-06-17T12:45:07.488Z,99134.55
2023-06-17T12:47:35.167Z,99132.05
2023-06-17T12:50:02.818Z,99131.40
2023-06-17T12:52:30.449Z,99128.68
2023-06-17T12:55:02.012Z,99131.31
2023-06-17T12:57:30.191Z,99130.48
2023-06-17T12:59:57.758Z,99129.84
2023-06-17T13:02:25.271Z,99127.96
2023-06-17T13:04:52.982Z,99136.64
2023-06-17T13:07:21.227Z,99140.27
2023-06-17T13:09:48.748Z,99133.78
2023-06-17T13:12:16.282Z,99133.94
2023-06-17T13:14:43.730Z,99137.30
2023-06-17T13:17:11.363Z,99135.50
2023-06-17T13:19:39.188Z,99136.71
2023-06-17T13:22:07.252Z,99135.45
2023-06-17T13:24:34.871Z,99134.77
2023-06-17T13:27:02.999Z,99131.48
2023-06-17T13:29:30.673Z,99133.98
2023-06-17T13:31:58.162Z,99131.15
2023-06-17T13:34:27.129Z,99131.35
2023-06-17T13:36:54.799Z,99131.32
2023-06-17T13:39:22.363Z,99132.73
2023-06-17T13:41:49.866Z,99132.41
2023-06-17T13:44:17.703Z,99126.35
2023-06-17T13:46:45.545Z,99133.65
2023-06-17T13:49:13.159Z,99136.23
2023-06-17T13:51:40.800Z,99135.88
2023-06-17T13:54:08.286Z,99133.30
2023-06-17T13:56:36.068Z,99130.16
2023-06-17T13:59:04.101Z,99130.25
2023-06-17T14:01:31.704Z,99125.44
2023-06-17T14:03:59.673Z,99124.43
2023-06-17T14:06:27.321Z,99123.58
2023-06-17T14:08:55.112Z,99123.96
2023-06-17T14:11:23.545Z,99119.95
2023-06-17T14:13:51.154Z,99117.08
2023-06-17T14:16:18.865Z,99119.83
2023-06-17T14:18:46.402Z,99124.38
2023-06-17T14:21:28.480Z,99118.89
2023-06-17T14:24:04.101Z,99124.60
2023-06-17T14:26:32.844Z,99126.05
2023-06-17T14:29:00.509Z,99123.36
2023-06-17T14:31:28.549Z,99128.27
2023-06-17T14:33:56.234Z,99125.41
2023-06-17T14:36:24.058Z,99136.30
2023-06-17T14:38:51.766Z,99130.48
2023-06-17T14:41:19.357Z,99126.61
2023-06-17T14:43:47.496Z,99129.18
2023-06-17T14:46:15.567Z,99133.93
2023-06-17T14:48:43.141Z,99131.27
2023-06-17T14:51:10.907Z,99137.21
2023-06-17T14:53:41.671Z,99137.77
2023-06-17T14:56:29.651Z,99143.58
2023-06-17T14:59:01.457Z,99143.80
2023-06-17T15:01:35.378Z,99145.42
2023-06-17T15:04:03.946Z,99145.59
2023-06-17T15:06:32.787Z,99147.06
2023-06-17T15:09:26.931Z,99148.34
2023-06-17T15:11:57.945Z,99150.25
2023-06-17T15:14:29.913Z,99145.76
2023-06-17T15:16:57.655Z,99150.36
2023-06-17T15:19:25.116Z,99152.81
2023-06-17T15:21:52.805Z,99155.02
2023-06-17T15:24:20.835Z,99153.90
2023-06-17T15:26:48.423Z,99154.52
2023-06-17T15:29:16.863Z,99159.88
2023-06-17T15:31:45.492Z,99158.48
2023-06-17T15:34:13.066Z,99163.44
2023-06-17T15:36:41.587Z,99160.39
2023-06-17T15:39:19.410Z,99164.96
2023-06-17T15:41:47.493Z,99164.88
2023-06-17T15:44:16.120Z,99162.71
2023-06-17T15:46:43.858Z,99161.70
2023-06-17T15:49:11.581Z,99163.66
2023-06-17T15:51:39.097Z,99161.98
2023-06-17T15:54:06.716Z,99162.34
2023-06-17T15:56:35.662Z,99165.30
2023-06-17T15:59:03.651Z,99171.11
2023-06-17T16:01:31.228Z,99166.48
2023-06-17T16:03:58.837Z,99169.31
2023-06-17T16:06:26.783Z,99169.66
2023-06-17T16:08:54.611Z,99175.58
2023-06-17T16:11:22.032Z,99173.06
2023-06-17T16:13:49.585Z,99180.70
2023-06-17T16:16:17.281Z,99172.20
2023-06-17T16:18:44.844Z,99177.66
2023-06-17T16:21:12.277Z,99177.76
2023-06-17T16:23:39.720Z,99177.00
2023-06-17T16:26:07.142Z,99174.04
2023-06-17T16:28:34.583Z,99174.75
2023-06-17T16:31:02.130Z,99174.23
2023-06-17T16:33:29.621Z,99177.86
2023-06-17T16:35:57.259Z,99176.45
2023-06-17T16:38:24.737Z,99176.23
2023-06-17T16:40:52.146Z,99173.89
2023-06-17T16:43:19.566Z,99168.13
2023-06-17T16:45:47.134Z,99169.38
2023-06-17T16:48:14.958Z,99175.38
2023-06-17T16:50:42.543Z,99173.92
2023-06-17T16:53:10.110Z,99174.30
2023-06-17T16:55:37.607Z,99177.13
2023-06-17T16:58:05.133Z,99175.14
2023-06-17T17:00:32.730Z,99176.58
2023-06-17T17:03:00.415Z,99175.48
2023-06-17T17:05:28.035Z,99178.68
2023-06-17T17:07:55.594Z,99183.70
2023-06-17T17:10:26.042Z,99187.30
2023-06-17T17:12:53.499Z,99192.49
2023-06-17T17:15:21.888Z,99193.53
2023-06-17T17:17:49.666Z,99197.70
2023-06-17T17:20:17.524Z,99199.42
2023-06-17T17:22:45.169Z,99202.32
2023-06-17T17:25:12.676Z,99203.52
2023-06-17T17:27:40.275Z,99206.58
2023-06-17T17:30:08.579Z,99208.50
2023-06-17T17:32:37.134Z,99213.98
2023-06-17T17:35:05.298Z,99220.42
2023-06-17T17:37:32.819Z,99222.04
2023-06-17T17:40:00.491Z,99223.06
2023-06-17T17:42:29.280Z,99227.83
2023-06-17T17:44:56.798Z,99225.91
2023-06-17T17:47:24.336Z,99226.83
2023-06-17T17:49:52.193Z,99232.66
2023-06-17T17:52:19.777Z,99235.84
2023-06-17T17:55:01.244Z,99237.30
2023-06-17T17:57:30.261Z,99240.34
2023-06-17T17:59:57.910Z,99244.58
2023-06-17T18:02:26.116Z,99244.77
2023-06-17T18:04:53.799Z,99248.69
2023-06-17T18:07:21.478Z,99250.19
2023-06-17T18:09:49.075Z,99251.88
2023-06-17T18:12:17.022Z,99251.77
2023-06-17T18:14:44.512Z,99255.83
2023-06-17T18:17:12.006Z,99254.30
2023-06-17T18:19:39.866Z,99259.70
2023-06-17T18:22:07.420Z,99261.25
2023-06-17T18:24:35.021Z,99262.13
2023-06-17T18:27:02.644Z,99266.23
2023-06-17T18:29:30.511Z,99267.14
2023-06-17T18:31:58.077Z,99268.27
2023-06-17T18:34:25.850Z,99271.42
2023-06-17T18:36:53.829Z,99270.75
2023-06-17T18:39:21.267Z,99270.17
2023-06-17T18:41:48.949Z,99275.05
2023-06-17T18:44:16.511Z,99274.89
2023-06-17T18:46:44.219Z,99271.48
2023-06-17T18:49:20.836Z,99274.70
2023-06-17T18:51:49.400Z,99268.22
2023-06-17T18:54:17.477Z,99271.66
2023-06-17T18:56:45.025Z,99271.74
2023-06-17T18:59:12.604Z,99270.52
2023-06-17T19:01:40.540Z,99270.02
2023-06-17T19:04:09.400Z,99272.16
2023-06-17T19:06:38.209Z,99272.80
2023-06-17T19:09:06.704Z,99271.98
2023-06-17T19:11:34.410Z,99270.49
2023-06-17T19:14:02.056Z,99271.59
2023-06-17T19:16:29.737Z,99271.20
2023-06-17T19:18:57.453Z,99272.08
2023-06-17T19:21:25.035Z,99272.97
2023-06-17T19:23:53.092Z,99273.46
2023-06-17T19:26:20.980Z,99276.23
2023-06-17T19:28:48.428Z,99278.20
2023-06-17T19:31:16.228Z,99278.95
2023-06-17T19:33:44.580Z,99275.62
2023-06-17T19:36:12.062Z,99277.17
2023-06-17T19:38:39.529Z,99276.77
2023-06-17T19:41:07.187Z,99274.49
2023-06-17T19:43:35.947Z,99275.73
2023-06-17T19:46:03.485Z,99276.36
2023-06-17T19:48:31.118Z,99276.89
2023-06-17T19:51:02.019Z,99273.81
2023-06-17T19:53:29.648Z,99272.33
2023-06-17T19:55:57.104Z,99270.67
2023-06-17T19:58:24.581Z,99269.09
2023-06-17T20:00:51.987Z,99271.81
2023-06-17T20:03:19.536Z,99271.31
2023-06-17T20:05:47.367Z,99272.63
2023-06-17T20:08:14.822Z,99270.52
2023-06-17T20:10:42.625Z,99272.97
2023-06-17T20:13:10.271Z,99268.74
2023-06-17T20:15:38.252Z,99273.92
2023-06-17T20:18:06.306Z,99273.09
2023-06-17T20:20:33.887Z,99276.52
2023-06-17T20:23:01.307Z,99273.30
2023-06-17T20:25:29.656Z,99278.77
2023-06-17T20:27:57.100Z,99277.59
2023-06-17T20:30:24.745Z,99275.92
2023-06-17T20:32:52.408Z,99280.52
2023-06-17T20:35:19.910Z,99280.63
2023-06-17T20:37:47.411Z,99281.95
2023-06-17T20:40:14.880Z,99281.81
2023-06-17T20:42:42.449Z,99284.81
2023-06-17T20:45:11.022Z,99286.52
2023-06-17T20:47:38.735Z,99287.80
2023-06-17T20:50:07.304Z,99294.30
2023-06-17T20:52:34.739Z,99294.36
2023-06-17T20:55:02.347Z,99297.91
2023-06-17T20:57:29.990Z,99298.30
2023-06-17T20:59:57.754Z,99296.86
2023-06-17T21:02:25.413Z,99297.14
2023-06-17T21:04:53.029Z,99298.44
2023-06-17T21:07:20.699Z,99300.40
2023-06-17T21:09:48.639Z,99293.83
2023-06-17T21:12:16.294Z,99293.54
2023-06-17T21:14:43.896Z,99296.91
2023-06-17T21:17:11.462Z,99295.39
2023-06-17T21:19:38.893Z,99296.73
2023-06-17T21:22:06.666Z,99300.36
2023-06-17T21:24:34.255Z,99303.75
2023-06-17T21:27:01.811Z,99303.13
2023-06-17T21:29:29.297Z,99298.52
2023-06-17T21:31:56.720Z,99298.14
2023-06-17T21:34:24.196Z,99300.55
2023-06-17T21:36:51.850Z,99298.31
2023-06-17T21:39:19.409Z,99296.04
2023-06-17T21:41:46.897Z,99300.39
2023-06-17T21:44:14.651Z,99301.38
2023-06-17T21:46:42.277Z,99302.67
2023-06-17T21:49:09.767Z,99302.25
2023-06-17T21:51:37.492Z,99303.80
2023-06-17T21:54:05.035Z,99303.22
2023-06-17T21:56:32.494Z,99304.20
2023-06-17T21:58:59.952Z,99300.93
2023-06-17T22:01:27.927Z,99305.57
2023-06-17T22:03:55.778Z,99307.17
2023-06-17T22:06:23.431Z,99306.20
2023-06-17T22:08:50.911Z,99302.27
2023-06-17T22:11:18.404Z,99299.84
2023-06-17T22:13:46.027Z,99298.55
2023-06-17T22:16:13.608Z,99297.96
2023-06-17T22:18:41.558Z,99296.46
2023-06-17T22:21:09.003Z,99296.77
2023-06-17T22:23:36.566Z,99291.70
2023-06-17T22:26:04.074Z,99294.73
2023-06-17T22:28:31.489Z,99292.08
2023-06-17T22:30:58.934Z,99293.41
2023-06-17T22:33:26.426Z,99293.59
2023-06-17T22:35:53.867Z,99296.70
2023-06-17T22:38:21.570Z,99298.98
2023-06-17T22:40:49.146Z,99299.56
2023-06-17T22:43:17.124Z,99303.77
2023-06-17T22:45:44.689Z,99303.63
2023-06-17T22:48:12.288Z,99300.84
2023-06-17T22:50:39.814Z,99301.63
2023-06-17T22:53:07.263Z,99302.27
2023-06-17T22:55:36.071Z,99299.48
2023-06-17T22:58:03.982Z,99299.09
2023-06-17T23:00:33.944Z,99298.55
2023-06-17T23:03:01.627Z,99299.66
2023-06-17T23:05:29.219Z,99299.27
2023-06-17T23:07:56.753Z,99300.16
2023-06-17T23:10:24.339Z,99302.48
2023-06-17T23:12:52.195Z,99300.58
2023-06-17T23:15:19.605Z,99299.74
2023-06-17T23:17:47.109Z,99299.02
2023-06-17T23:20:14.772Z,99295.86
2023-06-17T23:22:42.287Z,99296.79
2023-06-17T23:25:11.409Z,99294.96
2023-06-17T23:27:38.906Z,99297.86
2023-06-17T23:30:08.803Z,99298.89
2023-06-17T23:32:36.946Z,99297.39
2023-06-17T23:35:05.679Z,99294.73
2023-06-17T23:37:34.334Z,99293.82
2023-06-17T23:40:01.806Z,99290.60
2023-06-17T23:42:29.251Z,99292.10
2023-06-17T23:44:56.698Z,99289.14
2023-06-17T23:47:24.490Z,99285.89
2023-06-17T23:49:54.160Z,99282.84
2023-06-17T23:52:21.830Z,99285.27
2023-06-17T23:54:50.106Z,99282.82
2023-06-17T23:57:17.679Z,99284.24
2023-06-17T23:59:45.506Z,99280.84
